sensor_id;sensor_type;location;lat;lon;timestamp;pressure;altitude;pressure_sealevel;temperature;humidity
77023;BME280;65952;51.440;-2.054;2023-11-19T00:00:06;99507.25;;;13.60;66.27
77023;BME280;65952;51.440;-2.054;2023-11-19T00:02:39;99501.81;;;13.73;65.82
77023;BME280;65952;51.440;-2.054;2023-11-19T00:05:05;99514.47;;;13.79;65.79
77023;BME280;65952;51.440;-2.054;2023-11-19T00:07:35;99517.81;;;13.75;65.68
77023;BME280;65952;51.440;-2.054;2023-11-19T00:10:02;99509.28;;;13.98;65.06
77023;BME280;65952;51.440;-2.054;2023-11-19T00:12:29;99516.56;;;13.97;65.00
77023;BME280;65952;51.440;-2.054;2023-11-19T00:14:55;99514.47;;;13.93;65.19
77023;BME280;65952;51.440;-2.054;2023-11-19T00:17:20;99518.22;;;13.72;65.75
77023;BME280;65952;51.440;-2.054;2023-11-19T00:19:45;99518.44;;;13.90;65.30
77023;BME280;65952;51.440;-2.054;2023-11-19T00:22:11;99512.78;;;13.98;65.04
77023;BME280;65952;51.440;-2.054;2023-11-19T00:24:37;99496.66;;;13.72;65.55
77023;BME280;65952;51.440;-2.054;2023-11-19T00:27:02;99500.75;;;14.01;64.86
77023;BME280;65952;51.440;-2.054;2023-11-19T00:29:27;99498.09;;;13.88;65.17
77023;BME280;65952;51.440;-2.054;2023-11-19T00:31:53;99484.63;;;13.68;66.01
77023;BME280;65952;51.440;-2.054;2023-11-19T00:34:18;99487.75;;;13.71;65.82
77023;BME280;65952;51.440;-2.054;2023-11-19T00:36:46;99495.22;;;13.62;66.29
77023;BME280;65952;51.440;-2.054;2023-11-19T00:39:12;99483.56;;;13.62;66.21
77023;BME280;65952;51.440;-2.054;2023-11-19T00:41:40;99477.56;;;13.80;65.32
77023;BME280;65952;51.440;-2.054;2023-11-19T00:44:05;99473.44;;;13.57;66.22
77023;BME280;65952;51.440;-2.054;2023-11-19T00:46:31;99481.72;;;13.69;65.96
77023;BME280;65952;51.440;-2.054;2023-11-19T00:48:58;99470.91;;;13.69;65.96
77023;BME280;65952;51.440;-2.054;2023-11-19T00:51:25;99465.13;;;13.65;65.93
77023;BME280;65952;51.440;-2.054;2023-11-19T00:53:51;99469.88;;;13.70;65.67
77023;BME280;65952;51.440;-2.054;2023-11-19T00:56:18;99471.34;;;13.59;66.29
77023;BME280;65952;51.440;-2.054;2023-11-19T00:58:45;99476.91;;;13.85;65.15
77023;BME280;65952;51.440;-2.054;2023-11-19T01:01:11;99473.41;;;13.77;65.34
77023;BME280;65952;51.440;-2.054;2023-11-19T01:03:37;99477.56;;;13.67;65.52
77023;BME280;65952;51.440;-2.054;2023-11-19T01:06:03;99462.00;;;13.55;65.80
77023;BME280;65952;51.440;-2.054;2023-11-19T01:08:28;99470.09;;;13.55;65.69
77023;BME280;65952;51.440;-2.054;2023-11-19T01:10:54;99476.31;;;13.49;65.95
77023;BME280;65952;51.440;-2.054;2023-11-19T01:13:20;99471.13;;;13.54;65.74
77023;BME280;65952;51.440;-2.054;2023-11-19T01:15:45;99470.31;;;13.54;65.97
77023;BME280;65952;51.440;-2.054;2023-11-19T01:18:10;99468.88;;;13.51;65.85
77023;BME280;65952;51.440;-2.054;2023-11-19T01:20:36;99463.47;;;13.58;65.57
77023;BME280;65952;51.440;-2.054;2023-11-19T01:23:02;99464.72;;;13.69;65.27
77023;BME280;65952;51.440;-2.054;2023-11-19T01:25:27;99462.22;;;13.40;66.17
77023;BME280;65952;51.440;-2.054;2023-11-19T01:27:53;99457.25;;;13.44;66.25
77023;BME280;65952;51.440;-2.054;2023-11-19T01:30:18;99461.19;;;13.41;65.86
77023;BME280;65952;51.440;-2.054;2023-11-19T01:32:44;99468.03;;;13.44;66.00
77023;BME280;65952;51.440;-2.054;2023-11-19T01:35:10;99470.72;;;13.57;65.40
77023;BME280;65952;51.440;-2.054;2023-11-19T01:37:35;99464.28;;;13.65;65.17
77023;BME280;65952;51.440;-2.054;2023-11-19T01:40:01;99468.03;;;13.57;65.48
77023;BME280;65952;51.440;-2.054;2023-11-19T01:42:29;99472.19;;;13.40;65.56
77023;BME280;65952;51.440;-2.054;2023-11-19T01:44:57;99476.13;;;13.37;66.03
77023;BME280;65952;51.440;-2.054;2023-11-19T01:47:23;99478.81;;;13.44;65.45
77023;BME280;65952;51.440;-2.054;2023-11-19T01:49:50;99470.53;;;13.39;65.84
77023;BME280;65952;51.440;-2.054;2023-11-19T01:52:16;99462.22;;;13.54;65.10
77023;BME280;65952;51.440;-2.054;2023-11-19T01:54:42;99462.00;;;13.28;66.09
77023;BME280;65952;51.440;-2.054;2023-11-19T01:57:08;99454.50;;;13.30;65.96
77023;BME280;65952;51.440;-2.054;2023-11-19T01:59:34;99452.03;;;13.29;65.78
77023;BME280;65952;51.440;-2.054;2023-11-19T02:02:00;99452.44;;;13.12;66.42
77023;BME280;65952;51.440;-2.054;2023-11-19T02:04:25;99446.00;;;13.27;65.86
77023;BME280;65952;51.440;-2.054;2023-11-19T02:06:54;99445.56;;;12.96;66.65
77023;BME280;65952;51.440;-2.054;2023-11-19T02:09:21;99451.22;;;13.28;65.52
77023;BME280;65952;51.440;-2.054;2023-11-19T02:11:46;99454.94;;;13.34;65.72
77023;BME280;65952;51.440;-2.054;2023-11-19T02:14:17;99429.66;;;13.42;65.01
77023;BME280;65952;51.440;-2.054;2023-11-19T02:16:43;99436.09;;;13.21;65.91
77023;BME280;65952;51.440;-2.054;2023-11-19T02:19:08;99424.84;;;13.30;65.49
77023;BME280;65952;51.440;-2.054;2023-11-19T02:21:35;99432.31;;;13.22;65.75
77023;BME280;65952;51.440;-2.054;2023-11-19T02:24:05;99440.22;;;13.30;65.53
77023;BME280;65952;51.440;-2.054;2023-11-19T02:27:00;99441.88;;;13.11;65.99
77023;BME280;65952;51.440;-2.054;2023-11-19T02:29:28;99436.06;;;13.27;65.42
77023;BME280;65952;51.440;-2.054;2023-11-19T02:31:53;99443.13;;;13.08;65.72
77023;BME280;65952;51.440;-2.054;2023-11-19T02:34:20;99446.63;;;13.36;65.08
77023;BME280;65952;51.440;-2.054;2023-11-19T02:36:47;99438.97;;;13.26;65.29
77023;BME280;65952;51.440;-2.054;2023-11-19T02:39:12;99445.66;;;13.43;64.69
77023;BME280;65952;51.440;-2.054;2023-11-19T02:41:38;99453.50;;;13.38;64.96
77023;BME280;65952;51.440;-2.054;2023-11-19T02:44:05;99439.78;;;13.33;65.31
77023;BME280;65952;51.440;-2.054;2023-11-19T02:46:31;99437.28;;;13.18;65.22
77023;BME280;65952;51.440;-2.054;2023-11-19T02:48:57;99425.06;;;13.29;65.25
77023;BME280;65952;51.440;-2.054;2023-11-19T02:51:22;99425.50;;;13.39;64.33
77023;BME280;65952;51.440;-2.054;2023-11-19T02:53:47;99426.13;;;13.48;64.24
77023;BME280;65952;51.440;-2.054;2023-11-19T02:56:13;99428.59;;;13.29;64.43
77023;BME280;65952;51.440;-2.054;2023-11-19T02:58:50;99431.91;;;13.18;65.01
77023;BME280;65952;51.440;-2.054;2023-11-19T03:01:22;99424.84;;;13.30;64.61
77023;BME280;65952;51.440;-2.054;2023-11-19T03:03:59;99429.41;;;12.90;65.85
77023;BME280;65952;51.440;-2.054;2023-11-19T03:06:26;99417.19;;;13.14;65.38
77023;BME280;65952;51.440;-2.054;2023-11-19T03:08:52;99422.59;;;13.41;64.19
77023;BME280;65952;51.440;-2.054;2023-11-19T03:11:18;99421.53;;;13.22;64.58
77023;BME280;65952;51.440;-2.054;2023-11-19T03:13:43;99397.53;;;13.40;64.22
77023;BME280;65952;51.440;-2.054;2023-11-19T03:16:08;99398.75;;;13.17;64.40
77023;BME280;65952;51.440;-2.054;2023-11-19T03:18:34;99386.31;;;13.10;64.69
77023;BME280;65952;51.440;-2.054;2023-11-19T03:21:00;99379.88;;;13.04;64.73
77023;BME280;65952;51.440;-2.054;2023-11-19T03:23:25;99370.97;;;13.10;64.71
77023;BME280;65952;51.440;-2.054;2023-11-19T03:25:53;99368.28;;;13.10;64.59
77023;BME280;65952;51.440;-2.054;2023-11-19T03:28:18;99370.53;;;12.87;65.27
77023;BME280;65952;51.440;-2.054;2023-11-19T03:30:44;99369.72;;;12.86;65.49
77023;BME280;65952;51.440;-2.054;2023-11-19T03:33:09;99369.09;;;13.04;64.81
77023;BME280;65952;51.440;-2.054;2023-11-19T03:35:35;99377.59;;;13.08;64.56
77023;BME280;65952;51.440;-2.054;2023-11-19T03:38:00;99383.00;;;13.01;64.79
77023;BME280;65952;51.440;-2.054;2023-11-19T03:40:26;99376.16;;;13.05;64.44
77023;BME280;65952;51.440;-2.054;2023-11-19T03:42:51;99372.84;;;13.23;64.56
77023;BME280;65952;51.440;-2.054;2023-11-19T03:45:17;99369.91;;;13.18;64.75
77023;BME280;65952;51.440;-2.054;2023-11-19T03:47:42;99367.22;;;12.98;65.62
77023;BME280;65952;51.440;-2.054;2023-11-19T03:50:08;99373.44;;;13.25;64.63
77023;BME280;65952;51.440;-2.054;2023-11-19T03:52:34;99367.22;;;12.98;65.33
77023;BME280;65952;51.440;-2.054;2023-11-19T03:55:00;99359.75;;;13.07;64.91
77023;BME280;65952;51.440;-2.054;2023-11-19T03:57:26;99355.41;;;13.32;63.78
77023;BME280;65952;51.440;-2.054;2023-11-19T03:59:52;99360.81;;;13.19;64.34
77023;BME280;65952;51.440;-2.054;2023-11-19T04:02:17;99357.28;;;13.25;64.14
77023;BME280;65952;51.440;-2.054;2023-11-19T04:04:42;99357.28;;;13.25;63.86
77023;BME280;65952;51.440;-2.054;2023-11-19T04:07:08;99348.16;;;13.26;63.96
77023;BME280;65952;51.440;-2.054;2023-11-19T04:09:33;99355.00;;;12.95;64.87
77023;BME280;65952;51.440;-2.054;2023-11-19T04:11:59;99353.97;;;12.96;64.76
77023;BME280;65952;51.440;-2.054;2023-11-19T04:14:26;99355.66;;;13.11;64.60
77023;BME280;65952;51.440;-2.054;2023-11-19T04:16:52;99358.53;;;13.16;64.29
77023;BME280;65952;51.440;-2.054;2023-11-19T04:19:21;99362.25;;;13.15;64.59
77023;BME280;65952;51.440;-2.054;2023-11-19T04:21:47;99371.78;;;13.04;65.27
77023;BME280;65952;51.440;-2.054;2023-11-19T04:24:13;99388.19;;;13.16;65.73
77023;BME280;65952;51.440;-2.054;2023-11-19T04:26:43;99398.31;;;13.14;66.27
77023;BME280;65952;51.440;-2.054;2023-11-19T04:29:11;99411.78;;;12.94;67.41
77023;BME280;65952;51.440;-2.054;2023-11-19T04:31:37;99416.09;;;12.61;69.75
77023;BME280;65952;51.440;-2.054;2023-11-19T04:34:02;99393.13;;;12.79;69.06
77023;BME280;65952;51.440;-2.054;2023-11-19T04:36:28;99390.22;;;12.67;69.74
77023;BME280;65952;51.440;-2.054;2023-11-19T04:38:55;99380.50;;;12.86;69.13
77023;BME280;65952;51.440;-2.054;2023-11-19T04:41:20;99389.63;;;12.92;68.52
77023;BME280;65952;51.440;-2.054;2023-11-19T04:43:45;99390.66;;;13.11;68.00
77023;BME280;65952;51.440;-2.054;2023-11-19T04:46:11;99386.72;;;13.07;68.11
77023;BME280;65952;51.440;-2.054;2023-11-19T04:48:36;99383.41;;;13.11;67.48
77023;BME280;65952;51.440;-2.054;2023-11-19T04:51:04;99384.84;;;12.94;68.09
77023;BME280;65952;51.440;-2.054;2023-11-19T04:53:30;99388.59;;;12.99;68.17
77023;BME280;65952;51.440;-2.054;2023-11-19T04:55:55;99388.38;;;12.88;68.79
77023;BME280;65952;51.440;-2.054;2023-11-19T04:58:20;99383.38;;;12.98;68.56
77023;BME280;65952;51.440;-2.054;2023-11-19T05:00:46;99383.00;;;13.01;68.27
77023;BME280;65952;51.440;-2.054;2023-11-19T05:03:11;99383.22;;;12.99;68.95
77023;BME280;65952;51.440;-2.054;2023-11-19T05:05:36;99388.81;;;13.05;68.67
77023;BME280;65952;51.440;-2.054;2023-11-19T05:08:02;99386.31;;;13.03;68.69
77023;BME280;65952;51.440;-2.054;2023-11-19T05:10:27;99387.56;;;13.07;68.85
77023;BME280;65952;51.440;-2.054;2023-11-19T05:12:53;99393.13;;;13.19;68.34
77023;BME280;65952;51.440;-2.054;2023-11-19T05:15:18;99385.06;;;13.19;68.09
77023;BME280;65952;51.440;-2.054;2023-11-19T05:17:44;99385.50;;;13.16;68.14
77023;BME280;65952;51.440;-2.054;2023-11-19T05:20:10;99382.78;;;13.16;67.65
77023;BME280;65952;51.440;-2.054;2023-11-19T05:22:41;99385.91;;;12.99;67.87
77023;BME280;65952;51.440;-2.054;2023-11-19T05:25:07;99370.53;;;13.07;67.33
77023;BME280;65952;51.440;-2.054;2023-11-19T05:27:34;99376.56;;;13.09;67.11
77023;BME280;65952;51.440;-2.054;2023-11-19T05:30:01;99373.66;;;13.04;67.46
77023;BME280;65952;51.440;-2.054;2023-11-19T05:32:26;99387.97;;;12.91;67.32
77023;BME280;65952;51.440;-2.054;2023-11-19T05:34:52;99387.97;;;12.97;67.32
77023;BME280;65952;51.440;-2.054;2023-11-19T05:37:17;99376.34;;;12.83;67.44
77023;BME280;65952;51.440;-2.054;2023-11-19T05:39:45;99373.22;;;12.87;67.20
77023;BME280;65952;51.440;-2.054;2023-11-19T05:42:10;99365.38;;;12.85;66.93
77023;BME280;65952;51.440;-2.054;2023-11-19T05:44:36;99375.94;;;12.93;66.90
77023;BME280;65952;51.440;-2.054;2023-11-19T05:47:02;99371.78;;;12.84;66.66
77023;BME280;65952;51.440;-2.054;2023-11-19T05:49:27;99374.47;;;12.77;67.10
77023;BME280;65952;51.440;-2.054;2023-11-19T05:51:52;99374.88;;;12.67;67.26
77023;BME280;65952;51.440;-2.054;2023-11-19T05:54:21;99375.28;;;12.78;66.92
77023;BME280;65952;51.440;-2.054;2023-11-19T05:56:49;99378.44;;;12.95;66.34
77023;BME280;65952;51.440;-2.054;2023-11-19T05:59:15;99380.94;;;13.10;65.88
77023;BME280;65952;51.440;-2.054;2023-11-19T06:01:43;99381.31;;;13.07;65.60
77023;BME280;65952;51.440;-2.054;2023-11-19T06:04:09;99380.06;;;12.89;66.02
77023;BME280;65952;51.440;-2.054;2023-11-19T06:06:35;99380.09;;;12.96;65.77
77023;BME280;65952;51.440;-2.054;2023-11-19T06:09:01;99369.75;;;12.99;65.29
77023;BME280;65952;51.440;-2.054;2023-11-19T06:11:27;99377.00;;;12.86;65.60
77023;BME280;65952;51.440;-2.054;2023-11-19T06:13:53;99372.63;;;13.11;64.92
77023;BME280;65952;51.440;-2.054;2023-11-19T06:16:18;99386.09;;;13.25;64.15
77023;BME280;65952;51.440;-2.054;2023-11-19T06:18:44;99384.03;;;13.13;64.08
77023;BME280;65952;51.440;-2.054;2023-11-19T06:21:10;99399.78;;;13.16;64.08
77023;BME280;65952;51.440;-2.054;2023-11-19T06:23:35;99402.06;;;13.20;63.94
77023;BME280;65952;51.440;-2.054;2023-11-19T06:26:01;99409.13;;;13.27;63.92
77023;BME280;65952;51.440;-2.054;2023-11-19T06:28:26;99408.06;;;13.15;63.94
77023;BME280;65952;51.440;-2.054;2023-11-19T06:30:52;99421.97;;;13.12;64.15
77023;BME280;65952;51.440;-2.054;2023-11-19T06:33:17;99417.00;;;13.22;63.71
77023;BME280;65952;51.440;-2.054;2023-11-19T06:35:42;99410.78;;;13.28;63.13
77023;BME280;65952;51.440;-2.054;2023-11-19T06:38:08;99406.63;;;13.19;63.63
77023;BME280;65952;51.440;-2.054;2023-11-19T06:40:33;99397.09;;;13.63;62.25
77023;BME280;65952;51.440;-2.054;2023-11-19T06:43:00;99399.59;;;13.45;62.66
77023;BME280;65952;51.440;-2.054;2023-11-19T06:45:27;99398.31;;;13.54;62.35
77023;BME280;65952;51.440;-2.054;2023-11-19T06:47:53;99396.84;;;13.72;61.58
77023;BME280;65952;51.440;-2.054;2023-11-19T06:50:18;99402.50;;;13.50;62.15
77023;BME280;65952;51.440;-2.054;2023-11-19T06:52:44;99400.59;;;13.30;62.88
77023;BME280;65952;51.440;-2.054;2023-11-19T06:55:10;99399.97;;;13.69;62.07
77023;BME280;65952;51.440;-2.054;2023-11-19T06:57:35;99411.19;;;13.45;62.87
77023;BME280;65952;51.440;-2.054;2023-11-19T07:00:01;99404.56;;;13.48;63.30
77023;BME280;65952;51.440;-2.054;2023-11-19T07:02:26;99392.94;;;13.54;63.08
77023;BME280;65952;51.440;-2.054;2023-11-19T07:04:52;99396.47;;;13.35;63.85
77023;BME280;65952;51.440;-2.054;2023-11-19T07:07:17;99402.06;;;13.46;63.73
77023;BME280;65952;51.440;-2.054;2023-11-19T07:09:42;99400.22;;;13.54;63.28
77023;BME280;65952;51.440;-2.054;2023-11-19T07:12:08;99401.25;;;13.26;64.52
77023;BME280;65952;51.440;-2.054;2023-11-19T07:14:34;99388.78;;;13.58;63.86
77023;BME280;65952;51.440;-2.054;2023-11-19T07:16:59;99409.72;;;13.63;63.67
77023;BME280;65952;51.440;-2.054;2023-11-19T07:19:25;99401.00;;;13.61;64.17
77023;BME280;65952;51.440;-2.054;2023-11-19T07:21:50;99407.88;;;13.50;64.46
77023;BME280;65952;51.440;-2.054;2023-11-19T07:24:16;99410.38;;;13.52;64.50
77023;BME280;65952;51.440;-2.054;2023-11-19T07:26:46;99410.13;;;13.73;63.88
77023;BME280;65952;51.440;-2.054;2023-11-19T07:29:15;99405.81;;;13.39;65.28
77023;BME280;65952;51.440;-2.054;2023-11-19T07:31:44;99398.72;;;13.64;64.45
77023;BME280;65952;51.440;-2.054;2023-11-19T07:34:10;99394.78;;;13.67;64.09
77023;BME280;65952;51.440;-2.054;2023-11-19T07:36:36;99399.13;;;13.68;64.33
77023;BME280;65952;51.440;-2.054;2023-11-19T07:39:06;99397.09;;;13.50;65.14
77023;BME280;65952;51.440;-2.054;2023-11-19T07:41:32;99404.16;;;13.51;65.24
77023;BME280;65952;51.440;-2.054;2023-11-19T07:43:57;99412.25;;;13.51;65.48
77023;BME280;65952;51.440;-2.054;2023-11-19T07:46:23;99416.56;;;13.19;67.15
77023;BME280;65952;51.440;-2.054;2023-11-19T07:48:48;99422.78;;;13.32;67.37
77023;BME280;65952;51.440;-2.054;2023-11-19T07:51:14;99419.69;;;13.09;68.93
77023;BME280;65952;51.440;-2.054;2023-11-19T07:53:40;99430.69;;;13.07;69.32
77023;BME280;65952;51.440;-2.054;2023-11-19T07:56:06;99426.91;;;13.01;70.15
77023;BME280;65952;51.440;-2.054;2023-11-19T07:58:32;99418.22;;;13.13;69.89
77023;BME280;65952;51.440;-2.054;2023-11-19T08:00:58;99415.75;;;13.11;70.00
77023;BME280;65952;51.440;-2.054;2023-11-19T08:03:23;99417.63;;;13.38;69.29
77023;BME280;65952;51.440;-2.054;2023-11-19T08:05:48;99407.66;;;13.31;69.35
77023;BME280;65952;51.440;-2.054;2023-11-19T08:08:14;99408.28;;;13.33;69.30
77023;BME280;65952;51.440;-2.054;2023-11-19T08:10:40;99419.06;;;13.27;69.20
77023;BME280;65952;51.440;-2.054;2023-11-19T08:13:05;99421.34;;;13.23;68.95
77023;BME280;65952;51.440;-2.054;2023-11-19T08:15:31;99411.19;;;13.32;68.91
77023;BME280;65952;51.440;-2.054;2023-11-19T08:17:56;99403.31;;;13.17;68.63
77023;BME280;65952;51.440;-2.054;2023-11-19T08:20:22;99401.44;;;13.17;68.80
77023;BME280;65952;51.440;-2.054;2023-11-19T08:22:48;99399.59;;;13.38;68.11
77023;BME280;65952;51.440;-2.054;2023-11-19T08:25:13;99394.59;;;13.55;67.16
77023;BME280;65952;51.440;-2.054;2023-11-19T08:27:39;99398.09;;;13.36;67.67
77023;BME280;65952;51.440;-2.054;2023-11-19T08:30:05;99396.25;;;13.56;67.22
77023;BME280;65952;51.440;-2.054;2023-11-19T08:32:34;99390.88;;;13.56;67.19
77023;BME280;65952;51.440;-2.054;2023-11-19T08:34:59;99379.22;;;13.69;66.53
77023;BME280;65952;51.440;-2.054;2023-11-19T08:37:25;99366.81;;;13.55;66.36
77023;BME280;65952;51.440;-2.054;2023-11-19T08:39:50;99364.72;;;13.57;66.37
77023;BME280;65952;51.440;-2.054;2023-11-19T08:42:16;99373.25;;;13.54;66.75
77023;BME280;65952;51.440;-2.054;2023-11-19T08:44:42;99372.59;;;13.58;66.62
77023;BME280;65952;51.440;-2.054;2023-11-19T08:47:09;99373.78;;;13.82;66.05
77023;BME280;65952;51.440;-2.054;2023-11-19T08:49:35;99370.84;;;13.97;64.98
77023;BME280;65952;51.440;-2.054;2023-11-19T08:52:00;99362.66;;;14.11;64.62
77023;BME280;65952;51.440;-2.054;2023-11-19T08:54:26;99370.88;;;13.84;65.45
77023;BME280;65952;51.440;-2.054;2023-11-19T08:56:51;99367.56;;;13.82;65.33
77023;BME280;65952;51.440;-2.054;2023-11-19T08:59:17;99381.50;;;13.72;65.91
77023;BME280;65952;51.440;-2.054;2023-11-19T09:01:42;99377.56;;;13.75;66.29
77023;BME280;65952;51.440;-2.054;2023-11-19T09:04:08;99379.59;;;13.79;66.06
77023;BME280;65952;51.440;-2.054;2023-11-19T09:06:35;99390.00;;;13.69;66.25
77023;BME280;65952;51.440;-2.054;2023-11-19T09:09:00;99375.66;;;13.82;65.78
77023;BME280;65952;51.440;-2.054;2023-11-19T09:11:28;99384.00;;;13.60;66.27
77023;BME280;65952;51.440;-2.054;2023-11-19T09:13:54;99383.81;;;13.55;67.03
77023;BME280;65952;51.440;-2.054;2023-11-19T09:16:19;99377.16;;;13.71;66.82
77023;BME280;65952;51.440;-2.054;2023-11-19T09:18:44;99375.53;;;13.50;67.29
77023;BME280;65952;51.440;-2.054;2023-11-19T09:21:11;99392.94;;;13.34;67.97
77023;BME280;65952;51.440;-2.054;2023-11-19T09:23:36;99384.00;;;13.60;67.38
77023;BME280;65952;51.440;-2.054;2023-11-19T09:26:05;99371.34;;;13.68;66.63
77023;BME280;65952;51.440;-2.054;2023-11-19T09:28:30;99378.34;;;13.89;66.02
77023;BME280;65952;51.440;-2.054;2023-11-19T09:30:56;99373.78;;;13.76;65.87
77023;BME280;65952;51.440;-2.054;2023-11-19T09:33:21;99363.84;;;13.70;66.18
77023;BME280;65952;51.440;-2.054;2023-11-19T09:35:46;99377.94;;;13.85;65.35
77023;BME280;65952;51.440;-2.054;2023-11-19T09:38:12;99371.03;;;13.96;64.23
77023;BME280;65952;51.440;-2.054;2023-11-19T09:40:37;99368.66;;;13.68;65.46
77023;BME280;65952;51.440;-2.054;2023-11-19T09:43:04;99373.78;;;13.82;64.20
77023;BME280;65952;51.440;-2.054;2023-11-19T09:45:31;99361.25;;;14.02;63.96
77023;BME280;65952;51.440;-2.054;2023-11-19T09:48:00;99354.25;;;13.94;63.47
77023;BME280;65952;51.440;-2.054;2023-11-19T09:50:26;99384.16;;;13.86;63.89
77023;BME280;65952;51.440;-2.054;2023-11-19T09:52:51;99381.88;;;13.76;64.36
77023;BME280;65952;51.440;-2.054;2023-11-19T09:55:17;99361.31;;;13.88;63.86
77023;BME280;65952;51.440;-2.054;2023-11-19T09:57:43;99371.34;;;13.68;64.45
77023;BME280;65952;51.440;-2.054;2023-11-19T10:00:10;99372.09;;;13.88;64.18
77023;BME280;65952;51.440;-2.054;2023-11-19T10:02:36;99376.50;;;14.28;63.07
77023;BME280;65952;51.440;-2.054;2023-11-19T10:05:06;99378.25;;;14.09;63.42
77023;BME280;65952;51.440;-2.054;2023-11-19T10:07:32;99380.69;;;14.17;63.30
77023;BME280;65952;51.440;-2.054;2023-11-19T10:10:07;99373.72;;;14.03;63.80
77023;BME280;65952;51.440;-2.054;2023-11-19T10:12:33;99373.22;;;14.19;63.51
77023;BME280;65952;51.440;-2.054;2023-11-19T10:14:59;99365.09;;;14.26;63.28
77023;BME280;65952;51.440;-2.054;2023-11-19T10:17:34;99374.91;;;14.20;63.72
77023;BME280;65952;51.440;-2.054;2023-11-19T10:20:00;99377.50;;;14.34;63.45
77023;BME280;65952;51.440;-2.054;2023-11-19T10:22:27;99376.50;;;14.28;63.55
77023;BME280;65952;51.440;-2.054;2023-11-19T10:24:53;99377.69;;;13.93;64.57
77023;BME280;65952;51.440;-2.054;2023-11-19T10:27:18;99386.91;;;14.24;64.22
77023;BME280;65952;51.440;-2.054;2023-11-19T10:29:47;99391.16;;;14.00;64.36
77023;BME280;65952;51.440;-2.054;2023-11-19T10:32:13;99382.00;;;14.08;64.43
77023;BME280;65952;51.440;-2.054;2023-11-19T10:34:40;99364.59;;;13.97;64.57
77023;BME280;65952;51.440;-2.054;2023-11-19T10:37:07;99361.88;;;14.42;63.33
77023;BME280;65952;51.440;-2.054;2023-11-19T10:39:51;99376.41;;;14.03;64.23
77023;BME280;65952;51.440;-2.054;2023-11-19T10:42:19;99371.66;;;13.98;64.43
77023;BME280;65952;51.440;-2.054;2023-11-19T10:44:44;99361.19;;;14.22;63.92
77023;BME280;65952;51.440;-2.054;2023-11-19T10:47:10;99367.56;;;14.27;63.75
77023;BME280;65952;51.440;-2.054;2023-11-19T10:49:38;99369.06;;;14.23;63.80
77023;BME280;65952;51.440;-2.054;2023-11-19T10:52:08;99372.50;;;14.44;63.48
77023;BME280;65952;51.440;-2.054;2023-11-19T10:54:34;99370.81;;;14.43;63.75
77023;BME280;65952;51.440;-2.054;2023-11-19T10:57:01;99377.63;;;14.52;63.31
77023;BME280;65952;51.440;-2.054;2023-11-19T10:59:31;99381.91;;;14.28;64.64
77023;BME280;65952;51.440;-2.054;2023-11-19T11:02:03;99364.00;;;14.34;64.29
77023;BME280;65952;51.440;-2.054;2023-11-19T11:04:33;99367.25;;;14.49;63.94
77023;BME280;65952;51.440;-2.054;2023-11-19T11:07:02;99364.06;;;14.27;64.58
77023;BME280;65952;51.440;-2.054;2023-11-19T11:09:30;99375.44;;;14.36;64.70
77023;BME280;65952;51.440;-2.054;2023-11-19T11:11:56;99373.00;;;14.66;64.12
77023;BME280;65952;51.440;-2.054;2023-11-19T11:14:23;99364.81;;;14.41;64.99
77023;BME280;65952;51.440;-2.054;2023-11-19T11:16:49;99374.91;;;14.52;64.73
77023;BME280;65952;51.440;-2.054;2023-11-19T11:19:16;99372.13;;;14.72;64.19
77023;BME280;65952;51.440;-2.054;2023-11-19T11:21:49;99367.00;;;14.57;64.49
77023;BME280;65952;51.440;-2.054;2023-11-19T11:24:44;99353.47;;;14.57;64.56
77023;BME280;65952;51.440;-2.054;2023-11-19T11:30:17;99351.63;;;14.58;64.71
77023;BME280;65952;51.440;-2.054;2023-11-19T11:32:54;99338.88;;;14.72;64.50
77023;BME280;65952;51.440;-2.054;2023-11-19T11:38:21;99329.22;;;14.51;64.75
77023;BME280;65952;51.440;-2.054;2023-11-19T11:49:07;99338.53;;;14.55;65.40
77023;BME280;65952;51.440;-2.054;2023-11-19T11:54:30;99335.56;;;14.38;66.31
77023;BME280;65952;51.440;-2.054;2023-11-19T11:57:12;99343.94;;;14.23;67.00
77023;BME280;65952;51.440;-2.054;2023-11-19T12:02:08;99333.53;;;14.58;66.14
77023;BME280;65952;51.440;-2.054;2023-11-19T12:04:35;99339.00;;;14.52;66.60
77023;BME280;65952;51.440;-2.054;2023-11-19T12:07:15;99323.94;;;14.30;67.21
77023;BME280;65952;51.440;-2.054;2023-11-19T12:09:41;99332.75;;;14.51;66.96
77023;BME280;65952;51.440;-2.054;2023-11-19T12:12:21;99325.16;;;14.35;67.86
77023;BME280;65952;51.440;-2.054;2023-11-19T12:14:59;99326.59;;;14.76;66.41
77023;BME280;65952;51.440;-2.054;2023-11-19T12:20:05;99320.13;;;14.45;67.85
77023;BME280;65952;51.440;-2.054;2023-11-19T12:22:41;99324.44;;;14.85;66.87
77023;BME280;65952;51.440;-2.054;2023-11-19T12:25:07;99326.25;;;14.59;68.34
77023;BME280;65952;51.440;-2.054;2023-11-19T12:27:36;99324.47;;;14.46;69.31
77023;BME280;65952;51.440;-2.054;2023-11-19T12:30:03;99325.78;;;14.37;69.63
77023;BME280;65952;51.440;-2.054;2023-11-19T12:32:39;99330.41;;;14.29;70.35
77023;BME280;65952;51.440;-2.054;2023-11-19T12:35:05;99327.97;;;14.53;69.92
77023;BME280;65952;51.440;-2.054;2023-11-19T12:37:31;99312.47;;;14.42;70.36
77023;BME280;65952;51.440;-2.054;2023-11-19T12:39:57;99313.13;;;14.62;70.05
77023;BME280;65952;51.440;-2.054;2023-11-19T12:42:46;99331.97;;;14.44;70.74
77023;BME280;65952;51.440;-2.054;2023-11-19T12:45:12;99317.41;;;14.45;70.75
77023;BME280;65952;51.440;-2.054;2023-11-19T12:47:45;99325.25;;;14.21;71.47
77023;BME280;65952;51.440;-2.054;2023-11-19T12:50:15;99299.38;;;14.07;71.98
77023;BME280;65952;51.440;-2.054;2023-11-19T12:52:43;99315.94;;;14.49;70.83
77023;BME280;65952;51.440;-2.054;2023-11-19T12:55:25;99296.25;;;14.42;70.79
77023;BME280;65952;51.440;-2.054;2023-11-19T12:57:52;99294.94;;;14.51;70.67
77023;BME280;65952;51.440;-2.054;2023-11-19T13:00:19;99306.72;;;14.32;71.56
77023;BME280;65952;51.440;-2.054;2023-11-19T13:02:53;99307.13;;;13.90;73.17
77023;BME280;65952;51.440;-2.054;2023-11-19T13:05:25;99316.38;;;14.07;72.75
77023;BME280;65952;51.440;-2.054;2023-11-19T13:08:09;99306.72;;;14.32;72.62
77023;BME280;65952;51.440;-2.054;2023-11-19T13:10:53;99296.50;;;14.02;73.00